sensor_id;sensor_type;location;lat;lon;timestamp;P1;durP1;ratioP1;P2;durP2;ratioP2
68315;SDS011;55508;54.368;18.406;2023-07-20T00:00:06;8.30;;;6.13;;
68315;SDS011;55508;54.368;18.406;2023-07-20T00:02:38;9.43;;;6.05;;
68315;SDS011;55508;54.368;18.406;2023-07-20T00:05:05;8.20;;;6.65;;
68315;SDS011;55508;54.368;18.406;2023-07-20T00:07:32;11.20;;;6.88;;
68315;SDS011;55508;54.368;18.406;2023-07-20T00:10:00;6.75;;;6.13;;
68315;SDS011;55508;54.368;18.406;2023-07-20T00:12:27;9.05;;;7.28;;
68315;SDS011;55508;54.368;18.406;2023-07-20T00:14:54;7.53;;;6.65;;
68315;SDS011;55508;54.368;18.406;2023-07-20T00:17:21;7.05;;;6.20;;
68315;SDS011;55508;54.368;18.406;2023-07-20T00:19:47;6.13;;;5.63;;
68315;SDS011;55508;54.368;18.406;2023-07-20T00:22:14;6.07;;;5.15;;
68315;SDS011;55508;54.368;18.406;2023-07-20T00:24:41;6.65;;;5.90;;
68315;SDS011;55508;54.368;18.406;2023-07-20T00:27:08;11.32;;;5.45;;
68315;SDS011;55508;54.368;18.406;2023-07-20T00:29:35;6.65;;;6.05;;
68315;SDS011;55508;54.368;18.406;2023-07-20T00:32:03;10.05;;;6.53;;
68315;SDS011;55508;54.368;18.406;2023-07-20T00:34:31;6.70;;;6.00;;
68315;SDS011;55508;54.368;18.406;2023-07-20T00:36:59;6.53;;;5.93;;
68315;SDS011;55508;54.368;18.406;2023-07-20T00:39:26;6.35;;;5.70;;
68315;SDS011;55508;54.368;18.406;2023-07-20T00:41:53;7.10;;;6.38;;
68315;SDS011;55508;54.368;18.406;2023-07-20T00:44:20;10.63;;;7.05;;
68315;SDS011;55508;54.368;18.406;2023-07-20T00:46:47;14.27;;;9.93;;
68315;SDS011;55508;54.368;18.406;2023-07-20T00:49:15;10.07;;;9.00;;
68315;SDS011;55508;54.368;18.406;2023-07-20T00:51:42;9.30;;;7.13;;
68315;SDS011;55508;54.368;18.406;2023-07-20T00:54:10;7.40;;;6.82;;
68315;SDS011;55508;54.368;18.406;2023-07-20T00:56:37;8.27;;;7.47;;
68315;SDS011;55508;54.368;18.406;2023-07-20T00:59:04;9.63;;;6.85;;
68315;SDS011;55508;54.368;18.406;2023-07-20T01:01:31;9.40;;;6.75;;
68315;SDS011;55508;54.368;18.406;2023-07-20T01:03:59;7.43;;;6.72;;
68315;SDS011;55508;54.368;18.406;2023-07-20T01:06:34;7.78;;;7.18;;
68315;SDS011;55508;54.368;18.406;2023-07-20T01:09:13;8.73;;;7.82;;
68315;SDS011;55508;54.368;18.406;2023-07-20T01:11:54;7.80;;;7.10;;
68315;SDS011;55508;54.368;18.406;2023-07-20T01:14:31;7.55;;;6.85;;
68315;SDS011;55508;54.368;18.406;2023-07-20T01:16:59;8.05;;;6.95;;
68315;SDS011;55508;54.368;18.406;2023-07-20T01:19:26;7.72;;;7.00;;
68315;SDS011;55508;54.368;18.406;2023-07-20T01:22:02;11.38;;;7.20;;
68315;SDS011;55508;54.368;18.406;2023-07-20T01:27:57;8.55;;;7.75;;
68315;SDS011;55508;54.368;18.406;2023-07-20T01:33:40;7.20;;;6.22;;
68315;SDS011;55508;54.368;18.406;2023-07-20T01:36:09;7.40;;;6.65;;
68315;SDS011;55508;54.368;18.406;2023-07-20T01:38:37;8.05;;;6.05;;
68315;SDS011;55508;54.368;18.406;2023-07-20T01:41:04;7.93;;;6.13;;
68315;SDS011;55508;54.368;18.406;2023-07-20T01:43:32;6.43;;;5.85;;
68315;SDS011;55508;54.368;18.406;2023-07-20T01:45:58;6.97;;;6.30;;
68315;SDS011;55508;54.368;18.406;2023-07-20T01:48:26;6.40;;;5.80;;
68315;SDS011;55508;54.368;18.406;2023-07-20T01:50:53;6.13;;;5.63;;
68315;SDS011;55508;54.368;18.406;2023-07-20T01:53:20;6.18;;;5.57;;
68315;SDS011;55508;54.368;18.406;2023-07-20T01:55:49;9.07;;;5.85;;
68315;SDS011;55508;54.368;18.406;2023-07-20T01:58:16;9.07;;;6.30;;
68315;SDS011;55508;54.368;18.406;2023-07-20T02:00:43;6.63;;;6.13;;
68315;SDS011;55508;54.368;18.406;2023-07-20T02:03:10;6.97;;;6.20;;
68315;SDS011;55508;54.368;18.406;2023-07-20T02:05:39;6.85;;;6.13;;
68315;SDS011;55508;54.368;18.406;2023-07-20T02:08:08;7.43;;;6.82;;
68315;SDS011;55508;54.368;18.406;2023-07-20T02:10:36;7.18;;;6.47;;
68315;SDS011;55508;54.368;18.406;2023-07-20T02:13:03;7.28;;;6.57;;
68315;SDS011;55508;54.368;18.406;2023-07-20T02:15:30;7.20;;;6.60;;
68315;SDS011;55508;54.368;18.406;2023-07-20T02:17:57;8.45;;;6.45;;
68315;SDS011;55508;54.368;18.406;2023-07-20T02:20:24;6.50;;;6.00;;
68315;SDS011;55508;54.368;18.406;2023-07-20T02:22:51;7.47;;;6.53;;
68315;SDS011;55508;54.368;18.406;2023-07-20T02:25:18;7.40;;;6.70;;
68315;SDS011;55508;54.368;18.406;2023-07-20T02:27:45;8.00;;;6.25;;
68315;SDS011;55508;54.368;18.406;2023-07-20T02:30:12;7.18;;;6.57;;
68315;SDS011;55508;54.368;18.406;2023-07-20T02:32:40;9.25;;;6.20;;
68315;SDS011;55508;54.368;18.406;2023-07-20T02:35:07;6.93;;;6.22;;
68315;SDS011;55508;54.368;18.406;2023-07-20T02:37:34;8.13;;;6.70;;
68315;SDS011;55508;54.368;18.406;2023-07-20T02:40:01;7.75;;;6.70;;
68315;SDS011;55508;54.368;18.406;2023-07-20T02:42:30;7.00;;;6.55;;
68315;SDS011;55508;54.368;18.406;2023-07-20T02:44:57;7.47;;;6.68;;
68315;SDS011;55508;54.368;18.406;2023-07-20T02:47:24;7.55;;;6.97;;
68315;SDS011;55508;54.368;18.406;2023-07-20T02:49:51;7.18;;;6.60;;
68315;SDS011;55508;54.368;18.406;2023-07-20T02:52:18;6.93;;;6.32;;
68315;SDS011;55508;54.368;18.406;2023-07-20T02:54:48;9.93;;;7.40;;
68315;SDS011;55508;54.368;18.406;2023-07-20T02:57:15;8.65;;;6.28;;
68315;SDS011;55508;54.368;18.406;2023-07-20T02:59:42;8.68;;;6.30;;
68315;SDS011;55508;54.368;18.406;2023-07-20T03:02:09;10.13;;;6.00;;
68315;SDS011;55508;54.368;18.406;2023-07-20T03:04:36;6.18;;;5.68;;
68315;SDS011;55508;54.368;18.406;2023-07-20T03:07:04;7.13;;;6.10;;
68315;SDS011;55508;54.368;18.406;2023-07-20T03:09:31;6.57;;;6.07;;
68315;SDS011;55508;54.368;18.406;2023-07-20T03:11:58;6.53;;;6.13;;
68315;SDS011;55508;54.368;18.406;2023-07-20T03:14:25;6.50;;;5.88;;
68315;SDS011;55508;54.368;18.406;2023-07-20T03:16:52;5.35;;;4.90;;
68315;SDS011;55508;54.368;18.406;2023-07-20T03:19:20;6.13;;;4.00;;
68315;SDS011;55508;54.368;18.406;2023-07-20T03:21:47;3.78;;;3.45;;
68315;SDS011;55508;54.368;18.406;2023-07-20T03:24:14;3.45;;;3.13;;
68315;SDS011;55508;54.368;18.406;2023-07-20T03:26:41;3.70;;;3.40;;
68315;SDS011;55508;54.368;18.406;2023-07-20T03:29:08;5.28;;;3.53;;
68315;SDS011;55508;54.368;18.406;2023-07-20T03:31:35;6.97;;;3.97;;
68315;SDS011;55508;54.368;18.406;2023-07-20T03:34:03;5.60;;;4.15;;
68315;SDS011;55508;54.368;18.406;2023-07-20T03:36:31;4.35;;;3.95;;
68315;SDS011;55508;54.368;18.406;2023-07-20T03:38:58;4.88;;;3.63;;
68315;SDS011;55508;54.368;18.406;2023-07-20T03:41:25;3.97;;;3.67;;
68315;SDS011;55508;54.368;18.406;2023-07-20T03:43:52;3.63;;;3.15;;
68315;SDS011;55508;54.368;18.406;2023-07-20T03:46:19;6.82;;;3.10;;
68315;SDS011;55508;54.368;18.406;2023-07-20T03:48:46;4.03;;;2.97;;
68315;SDS011;55508;54.368;18.406;2023-07-20T03:51:13;5.03;;;2.95;;
68315;SDS011;55508;54.368;18.406;2023-07-20T03:53:40;3.67;;;2.75;;
68315;SDS011;55508;54.368;18.406;2023-07-20T03:56:07;3.85;;;2.67;;
68315;SDS011;55508;54.368;18.406;2023-07-20T03:58:34;4.53;;;2.75;;
68315;SDS011;55508;54.368;18.406;2023-07-20T04:01:01;4.50;;;2.50;;
68315;SDS011;55508;54.368;18.406;2023-07-20T04:03:28;2.50;;;2.03;;
68315;SDS011;55508;54.368;18.406;2023-07-20T04:05:55;5.97;;;2.70;;
68315;SDS011;55508;54.368;18.406;2023-07-20T04:08:23;3.00;;;2.42;;
68315;SDS011;55508;54.368;18.406;2023-07-20T04:10:51;5.97;;;2.67;;
68315;SDS011;55508;54.368;18.406;2023-07-20T04:13:18;7.25;;;3.05;;
68315;SDS011;55508;54.368;18.406;2023-07-20T04:15:45;3.25;;;2.90;;
68315;SDS011;55508;54.368;18.406;2023-07-20T04:18:12;5.30;;;3.25;;
68315;SDS011;55508;54.368;18.406;2023-07-20T04:20:40;5.40;;;3.33;;
68315;SDS011;55508;54.368;18.406;2023-07-20T04:23:07;5.18;;;2.97;;
68315;SDS011;55508;54.368;18.406;2023-07-20T04:25:34;6.07;;;3.00;;
68315;SDS011;55508;54.368;18.406;2023-07-20T04:28:08;4.10;;;3.13;;
68315;SDS011;55508;54.368;18.406;2023-07-20T04:30:40;4.70;;;3.15;;
68315;SDS011;55508;54.368;18.406;2023-07-20T04:33:09;3.70;;;3.33;;
68315;SDS011;55508;54.368;18.406;2023-07-20T04:35:49;4.95;;;3.60;;
68315;SDS011;55508;54.368;18.406;2023-07-20T04:38:25;4.28;;;3.20;;
68315;SDS011;55508;54.368;18.406;2023-07-20T04:41:03;4.28;;;3.50;;
68315;SDS011;55508;54.368;18.406;2023-07-20T04:43:40;3.30;;;3.00;;
68315;SDS011;55508;54.368;18.406;2023-07-20T04:46:10;4.57;;;3.35;;
68315;SDS011;55508;54.368;18.406;2023-07-20T04:48:38;4.93;;;3.15;;
68315;SDS011;55508;54.368;18.406;2023-07-20T04:51:07;4.32;;;3.40;;
68315;SDS011;55508;54.368;18.406;2023-07-20T04:53:35;3.88;;;3.45;;
68315;SDS011;55508;54.368;18.406;2023-07-20T04:56:02;3.83;;;3.47;;
68315;SDS011;55508;54.368;18.406;2023-07-20T04:58:29;3.33;;;3.08;;
68315;SDS011;55508;54.368;18.406;2023-07-20T05:00:56;4.07;;;3.28;;
68315;SDS011;55508;54.368;18.406;2023-07-20T05:03:24;3.75;;;3.10;;
68315;SDS011;55508;54.368;18.406;2023-07-20T05:05:52;3.45;;;3.15;;
68315;SDS011;55508;54.368;18.406;2023-07-20T05:08:18;3.30;;;3.00;;
68315;SDS011;55508;54.368;18.406;2023-07-20T05:10:47;3.72;;;3.33;;
68315;SDS011;55508;54.368;18.406;2023-07-20T05:13:14;3.58;;;3.17;;
68315;SDS011;55508;54.368;18.406;2023-07-20T05:15:41;5.22;;;3.20;;
68315;SDS011;55508;54.368;18.406;2023-07-20T05:18:12;5.95;;;3.53;;
68315;SDS011;55508;54.368;18.406;2023-07-20T05:20:40;6.45;;;3.67;;
68315;SDS011;55508;54.368;18.406;2023-07-20T05:23:08;3.50;;;3.30;;
68315;SDS011;55508;54.368;18.406;2023-07-20T05:25:35;5.97;;;4.72;;
68315;SDS011;55508;54.368;18.406;2023-07-20T05:28:02;5.40;;;4.93;;
68315;SDS011;55508;54.368;18.406;2023-07-20T05:30:29;4.25;;;3.85;;
68315;SDS011;55508;54.368;18.406;2023-07-20T05:32:56;3.55;;;3.22;;
68315;SDS011;55508;54.368;18.406;2023-07-20T05:35:23;3.55;;;3.25;;
68315;SDS011;55508;54.368;18.406;2023-07-20T05:37:50;4.15;;;3.10;;
68315;SDS011;55508;54.368;18.406;2023-07-20T05:40:17;4.68;;;3.08;;
68315;SDS011;55508;54.368;18.406;2023-07-20T05:42:46;3.65;;;2.80;;
68315;SDS011;55508;54.368;18.406;2023-07-20T05:45:14;3.33;;;2.60;;
68315;SDS011;55508;54.368;18.406;2023-07-20T05:47:42;3.35;;;2.80;;
68315;SDS011;55508;54.368;18.406;2023-07-20T05:50:09;6.72;;;3.28;;
68315;SDS011;55508;54.368;18.406;2023-07-20T05:52:37;2.30;;;2.10;;
68315;SDS011;55508;54.368;18.406;2023-07-20T05:55:06;3.03;;;2.17;;
68315;SDS011;55508;54.368;18.406;2023-07-20T05:57:33;3.05;;;2.30;;
68315;SDS011;55508;54.368;18.406;2023-07-20T06:00:03;4.10;;;2.55;;
68315;SDS011;55508;54.368;18.406;2023-07-20T06:02:38;2.72;;;2.50;;
68315;SDS011;55508;54.368;18.406;2023-07-20T06:05:07;4.32;;;2.50;;
68315;SDS011;55508;54.368;18.406;2023-07-20T06:07:38;2.92;;;2.70;;
68315;SDS011;55508;54.368;18.406;2023-07-20T06:10:08;3.38;;;3.03;;
68315;SDS011;55508;54.368;18.406;2023-07-20T06:12:36;2.97;;;2.78;;
68315;SDS011;55508;54.368;18.406;2023-07-20T06:15:03;4.60;;;2.70;;
68315;SDS011;55508;54.368;18.406;2023-07-20T06:17:31;2.63;;;2.42;;
68315;SDS011;55508;54.368;18.406;2023-07-20T06:19:58;2.33;;;2.13;;
68315;SDS011;55508;54.368;18.406;2023-07-20T06:22:25;2.55;;;2.28;;
68315;SDS011;55508;54.368;18.406;2023-07-20T06:24:52;4.47;;;1.60;;
68315;SDS011;55508;54.368;18.406;2023-07-20T06:27:19;2.30;;;1.75;;
68315;SDS011;55508;54.368;18.406;2023-07-20T06:29:46;3.22;;;1.65;;
68315;SDS011;55508;54.368;18.406;2023-07-20T06:32:13;5.03;;;1.98;;
68315;SDS011;55508;54.368;18.406;2023-07-20T06:34:40;2.63;;;1.88;;
68315;SDS011;55508;54.368;18.406;2023-07-20T06:37:07;1.92;;;1.65;;
68315;SDS011;55508;54.368;18.406;2023-07-20T06:39:34;1.55;;;1.45;;
68315;SDS011;55508;54.368;18.406;2023-07-20T06:42:04;1.85;;;1.75;;
68315;SDS011;55508;54.368;18.406;2023-07-20T06:44:32;1.70;;;1.60;;
68315;SDS011;55508;54.368;18.406;2023-07-20T06:46:59;2.17;;;1.92;;
68315;SDS011;55508;54.368;18.406;2023-07-20T06:49:28;4.20;;;2.00;;
68315;SDS011;55508;54.368;18.406;2023-07-20T06:51:59;2.55;;;1.85;;
68315;SDS011;55508;54.368;18.406;2023-07-20T06:54:26;3.55;;;1.92;;
68315;SDS011;55508;54.368;18.406;2023-07-20T06:56:53;1.98;;;1.80;;
68315;SDS011;55508;54.368;18.406;2023-07-20T06:59:23;4.00;;;2.40;;
68315;SDS011;55508;54.368;18.406;2023-07-20T07:01:51;2.85;;;2.00;;
68315;SDS011;55508;54.368;18.406;2023-07-20T07:04:18;3.78;;;2.13;;
68315;SDS011;55508;54.368;18.406;2023-07-20T07:06:45;4.50;;;2.13;;
68315;SDS011;55508;54.368;18.406;2023-07-20T07:09:12;1.92;;;1.77;;
68315;SDS011;55508;54.368;18.406;2023-07-20T07:11:39;3.75;;;2.08;;
68315;SDS011;55508;54.368;18.406;2023-07-20T07:14:06;2.17;;;1.98;;
68315;SDS011;55508;54.368;18.406;2023-07-20T07:16:34;9.60;;;1.77;;
68315;SDS011;55508;54.368;18.406;2023-07-20T07:19:05;21.92;;;2.53;;
68315;SDS011;55508;54.368;18.406;2023-07-20T07:21:32;2.95;;;2.22;;
68315;SDS011;55508;54.368;18.406;2023-07-20T07:23:59;1.70;;;1.60;;
68315;SDS011;55508;54.368;18.406;2023-07-20T07:26:26;2.20;;;1.58;;
68315;SDS011;55508;54.368;18.406;2023-07-20T07:28:53;2.60;;;1.50;;
68315;SDS011;55508;54.368;18.406;2023-07-20T07:31:20;2.10;;;1.35;;
68315;SDS011;55508;54.368;18.406;2023-07-20T07:33:47;2.35;;;1.20;;
68315;SDS011;55508;54.368;18.406;2023-07-20T07:36:14;0.80;;;0.80;;
68315;SDS011;55508;54.368;18.406;2023-07-20T07:38:41;0.80;;;0.80;;
68315;SDS011;55508;54.368;18.406;2023-07-20T07:41:11;2.08;;;1.10;;
68315;SDS011;55508;54.368;18.406;2023-07-20T07:43:38;1.30;;;0.88;;
68315;SDS011;55508;54.368;18.406;2023-07-20T07:46:05;3.25;;;1.10;;
68315;SDS011;55508;54.368;18.406;2023-07-20T07:48:32;0.73;;;0.70;;
68315;SDS011;55508;54.368;18.406;2023-07-20T07:50:59;1.42;;;1.00;;
68315;SDS011;55508;54.368;18.406;2023-07-20T07:53:26;1.02;;;0.65;;
68315;SDS011;55508;54.368;18.406;2023-07-20T07:55:53;2.05;;;0.90;;
68315;SDS011;55508;54.368;18.406;2023-07-20T07:58:20;1.27;;;0.80;;
68315;SDS011;55508;54.368;18.406;2023-07-20T08:00:47;1.40;;;1.00;;
68315;SDS011;55508;54.368;18.406;2023-07-20T08:03:15;3.97;;;0.70;;
68315;SDS011;55508;54.368;18.406;2023-07-20T08:05:42;1.88;;;0.90;;
68315;SDS011;55508;54.368;18.406;2023-07-20T08:08:10;3.03;;;0.95;;
68315;SDS011;55508;54.368;18.406;2023-07-20T08:10:39;1.10;;;0.73;;
68315;SDS011;55508;54.368;18.406;2023-07-20T08:13:06;1.20;;;0.80;;
68315;SDS011;55508;54.368;18.406;2023-07-20T08:15:33;2.38;;;0.70;;
68315;SDS011;55508;54.368;18.406;2023-07-20T08:18:00;1.42;;;0.60;;
68315;SDS011;55508;54.368;18.406;2023-07-20T08:20:27;1.30;;;1.20;;
68315;SDS011;55508;54.368;18.406;2023-07-20T08:22:55;2.40;;;1.50;;
68315;SDS011;55508;54.368;18.406;2023-07-20T08:25:22;0.60;;;0.50;;
68315;SDS011;55508;54.368;18.406;2023-07-20T08:27:50;1.52;;;0.75;;
68315;SDS011;55508;54.368;18.406;2023-07-20T08:30:20;2.97;;;0.60;;
68315;SDS011;55508;54.368;18.406;2023-07-20T08:32:48;1.63;;;0.90;;
68315;SDS011;55508;54.368;18.406;2023-07-20T08:35:15;2.63;;;0.70;;
68315;SDS011;55508;54.368;18.406;2023-07-20T08:37:42;5.00;;;0.90;;
68315;SDS011;55508;54.368;18.406;2023-07-20T08:40:10;1.80;;;0.65;;
68315;SDS011;55508;54.368;18.406;2023-07-20T08:42:37;1.25;;;0.60;;
68315;SDS011;55508;54.368;18.406;2023-07-20T08:45:06;0.60;;;0.40;;
68315;SDS011;55508;54.368;18.406;2023-07-20T08:47:35;0.57;;;0.38;;
68315;SDS011;55508;54.368;18.406;2023-07-20T08:50:02;0.80;;;0.65;;
68315;SDS011;55508;54.368;18.406;2023-07-20T08:52:34;0.40;;;0.40;;
68315;SDS011;55508;54.368;18.406;2023-07-20T08:55:01;0.50;;;0.50;;
68315;SDS011;55508;54.368;18.406;2023-07-20T08:57:31;0.90;;;0.50;;
68315;SDS011;55508;54.368;18.406;2023-07-20T09:00:00;1.00;;;0.40;;
68315;SDS011;55508;54.368;18.406;2023-07-20T09:02:31;0.60;;;0.30;;
68315;SDS011;55508;54.368;18.406;2023-07-20T09:05:08;0.28;;;0.25;;
68315;SDS011;55508;54.368;18.406;2023-07-20T09:07:42;1.40;;;0.25;;
68315;SDS011;55508;54.368;18.406;2023-07-20T09:10:08;1.17;;;0.32;;
68315;SDS011;55508;54.368;18.406;2023-07-20T09:12:37;1.42;;;0.20;;
68315;SDS011;55508;54.368;18.406;2023-07-20T09:15:09;0.68;;;0.32;;
68315;SDS011;55508;54.368;18.406;2023-07-20T09:17:41;0.40;;;0.30;;
68315;SDS011;55508;54.368;18.406;2023-07-20T09:20:14;0.38;;;0.30;;
68315;SDS011;55508;54.368;18.406;2023-07-20T09:22:42;0.80;;;0.20;;
68315;SDS011;55508;54.368;18.406;2023-07-20T09:25:11;11.18;;;1.52;;
68315;SDS011;55508;54.368;18.406;2023-07-20T09:27:48;14.88;;;1.98;;
68315;SDS011;55508;54.368;18.406;2023-07-20T09:30:18;13.80;;;2.40;;
68315;SDS011;55508;54.368;18.406;2023-07-20T09:32:47;9.43;;;0.95;;
68315;SDS011;55508;54.368;18.406;2023-07-20T09:35:18;3.40;;;0.70;;
68315;SDS011;55508;54.368;18.406;2023-07-20T09:37:50;1.65;;;0.50;;
68315;SDS011;55508;54.368;18.406;2023-07-20T09:40:40;2.30;;;0.60;;
68315;SDS011;55508;54.368;18.406;2023-07-20T09:43:11;1.55;;;0.68;;
68315;SDS011;55508;54.368;18.406;2023-07-20T09:45:41;1.85;;;0.70;;
68315;SDS011;55508;54.368;18.406;2023-07-20T09:48:11;3.55;;;0.50;;
68315;SDS011;55508;54.368;18.406;2023-07-20T09:50:43;1.77;;;0.30;;
68315;SDS011;55508;54.368;18.406;2023-07-20T09:53:15;2.15;;;0.80;;
68315;SDS011;55508;54.368;18.406;2023-07-20T09:55:45;1.40;;;0.65;;
68315;SDS011;55508;54.368;18.406;2023-07-20T09:58:13;1.17;;;0.60;;
68315;SDS011;55508;54.368;18.406;2023-07-20T10:00:42;2.50;;;0.80;;
68315;SDS011;55508;54.368;18.406;2023-07-20T10:03:18;3.95;;;0.57;;
68315;SDS011;55508;54.368;18.406;2023-07-20T10:06:06;2.55;;;0.50;;
68315;SDS011;55508;54.368;18.406;2023-07-20T10:08:34;1.83;;;0.50;;
68315;SDS011;55508;54.368;18.406;2023-07-20T10:11:10;2.70;;;0.60;;
68315;SDS011;55508;54.368;18.406;2023-07-20T10:13:39;3.22;;;0.40;;
68315;SDS011;55508;54.368;18.406;2023-07-20T10:16:11;1.48;;;0.40;;
68315;SDS011;55508;54.368;18.406;2023-07-20T10:21:31;0.30;;;0.30;;
68315;SDS011;55508;54.368;18.406;2023-07-20T10:24:03;0.63;;;0.30;;
68315;SDS011;55508;54.368;18.406;2023-07-20T10:26:31;0.50;;;0.20;;
68315;SDS011;55508;54.368;18.406;2023-07-20T10:29:02;0.50;;;0.20;;
68315;SDS011;55508;54.368;18.406;2023-07-20T10:31:30;1.23;;;0.30;;
68315;SDS011;55508;54.368;18.406;2023-07-20T10:33:57;1.83;;;1.35;;
68315;SDS011;55508;54.368;18.406;2023-07-20T10:36:25;0.88;;;0.30;;
68315;SDS011;55508;54.368;18.406;2023-07-20T10:38:57;0.20;;;0.20;;
68315;SDS011;55508;54.368;18.406;2023-07-20T10:41:29;2.75;;;0.40;;
68315;SDS011;55508;54.368;18.406;2023-07-20T10:44:01;0.98;;;0.50;;
68315;SDS011;55508;54.368;18.406;2023-07-20T10:46:35;2.08;;;0.40;;
68315;SDS011;55508;54.368;18.406;2023-07-20T10:49:09;0.82;;;0.50;;
68315;SDS011;55508;54.368;18.406;2023-07-20T10:51:47;8.07;;;0.60;;
68315;SDS011;55508;54.368;18.406;2023-07-20T10:57:22;1.67;;;0.40;;
68315;SDS011;55508;54.368;18.406;2023-07-20T10:59:51;4.35;;;0.68;;
68315;SDS011;55508;54.368;18.406;2023-07-20T11:02:18;3.10;;;0.50;;
68315;SDS011;55508;54.368;18.406;2023-07-20T11:04:47;0.73;;;0.40;;
68315;SDS011;55508;54.368;18.406;2023-07-20T11:07:17;0.63;;;0.40;;
68315;SDS011;55508;54.368;18.406;2023-07-20T11:09:45;0.60;;;0.30;;
68315;SDS011;55508;54.368;18.406;2023-07-20T11:12:16;0.30;;;0.25;;
68315;SDS011;55508;54.368;18.406;2023-07-20T11:14:54;0.57;;;0.20;;
68315;SDS011;55508;54.368;18.406;2023-07-20T11:17:29;2.50;;;0.25;;
68315;SDS011;55508;54.368;18.406;2023-07-20T11:19:58;0.35;;;0.20;;
68315;SDS011;55508;54.368;18.406;2023-07-20T11:22:30;0.65;;;0.30;;
68315;SDS011;55508;54.368;18.406;2023-07-20T11:24:58;1.40;;;0.30;;
68315;SDS011;55508;54.368;18.406;2023-07-20T11:27:25;0.30;;;0.30;;
68315;SDS011;55508;54.368;18.406;2023-07-20T11:29:55;1.48;;;0.20;;
68315;SDS011;55508;54.368;18.406;2023-07-20T11:32:23;0.43;;;0.20;;
68315;SDS011;55508;54.368;18.406;2023-07-20T11:34:51;0.50;;;0.30;;
68315;SDS011;55508;54.368;18.406;2023-07-20T11:37:18;0.35;;;0.20;;
68315;SDS011;55508;54.368;18.406;2023-07-20T11:39:45;1.02;;;0.40;;
68315;SDS011;55508;54.368;18.406;2023-07-20T11:42:16;0.82;;;0.30;;
68315;SDS011;55508;54.368;18.406;2023-07-20T11:44:51;0.28;;;0.28;;
68315;SDS011;55508;54.368;18.406;2023-07-20T11:47:18;3.10;;;0.22;;
68315;SDS011;55508;54.368;18.406;2023-07-20T11:49:45;0.55;;;0.30;;
68315;SDS011;55508;54.368;18.406;2023-07-20T11:54:44;0.55;;;0.20;;
68315;SDS011;55508;54.368;18.406;2023-07-20T11:57:19;0.30;;;0.20;;
68315;SDS011;55508;54.368;18.406;2023-07-20T11:59:53;0.30;;;0.22;;
68315;SDS011;55508;54.368;18.406;2023-07-20T12:02:26;1.95;;;0.70;;
68315;SDS011;55508;54.368;18.406;2023-07-20T12:04:54;0.40;;;0.20;;
68315;SDS011;55508;54.368;18.406;2023-07-20T12:07:22;0.43;;;0.30;;
68315;SDS011;55508;54.368;18.406;2023-07-20T12:12:40;1.13;;;0.40;;
68315;SDS011;55508;54.368;18.406;2023-07-20T12:15:19;0.52;;;0.20;;
68315;SDS011;55508;54.368;18.406;2023-07-20T12:17:52;0.68;;;0.40;;
68315;SDS011;55508;54.368;18.406;2023-07-20T12:20:28;0.40;;;0.20;;
68315;SDS011;55508;54.368;18.406;2023-07-20T12:23:01;2.35;;;0.30;;
68315;SDS011;55508;54.368;18.406;2023-07-20T12:25:39;0.30;;;0.20;;
68315;SDS011;55508;54.368;18.406;2023-07-20T12:30:39;0.20;;;0.20;;
68315;SDS011;55508;54.368;18.406;2023-07-20T12:33:07;0.20;;;0.20;;
68315;SDS011;55508;54.368;18.406;2023-07-20T12:35:35;2.38;;;0.20;;
68315;SDS011;55508;54.368;18.406;2023-07-20T12:38:02;3.00;;;0.20;;
68315;SDS011;55508;54.368;18.406;2023-07-20T12:40:29;1.63;;;0.20;;
68315;SDS011;55508;54.368;18.406;2023-07-20T12:42:56;0.45;;;0.20;;
68315;SDS011;55508;54.368;18.406;2023-07-20T12:45:24;0.73;;;0.20;;
68315;SDS011;55508;54.368;18.406;2023-07-20T12:47:51;0.80;;;0.20;;
68315;SDS011;55508;54.368;18.406;2023-07-20T12:50:18;0.77;;;0.20;;
68315;SDS011;55508;54.368;18.406;2023-07-20T12:52:45;0.38;;;0.20;;
68315;SDS011;55508;54.368;18.406;2023-07-20T12:55:12;0.52;;;0.20;;
68315;SDS011;55508;54.368;18.406;2023-07-20T12:57:40;1.45;;;0.20;;
68315;SDS011;55508;54.368;18.406;2023-07-20T13:00:08;0.20;;;0.13;;
68315;SDS011;55508;54.368;18.406;2023-07-20T13:02:37;0.77;;;0.20;;
68315;SDS011;55508;54.368;18.406;2023-07-20T13:05:05;2.40;;;0.30;;
68315;SDS011;55508;54.368;18.406;2023-07-20T13:07:35;0.80;;;0.28;;
68315;SDS011;55508;54.368;18.406;2023-07-20T13:10:06;1.17;;;0.20;;
68315;SDS011;55508;54.368;18.406;2023-07-20T13:12:35;0.82;;;0.20;;
68315;SDS011;55508;54.368;18.406;2023-07-20T13:15:02;0.47;;;0.22;;
68315;SDS011;55508;54.368;18.406;2023-07-20T13:17:33;0.77;;;0.25;;
68315;SDS011;55508;54.368;18.406;2023-07-20T13:20:02;0.82;;;0.30;;
68315;SDS011;55508;54.368;18.406;2023-07-20T13:22:31;0.85;;;0.28;;
68315;SDS011;55508;54.368;18.406;2023-07-20T13:24:58;1.33;;;0.40;;
68315;SDS011;55508;54.368;18.406;2023-07-20T13:27:25;3.58;;;0.32;;
68315;SDS011;55508;54.368;18.406;2023-07-20T13:29:52;0.43;;;0.43;;
68315;SDS011;55508;54.368;18.406;2023-07-20T13:32:20;0.22;;;0.20;;
68315;SDS011;55508;54.368;18.406;2023-07-20T13:34:47;0.60;;;0.38;;
68315;SDS011;55508;54.368;18.406;2023-07-20T13:37:15;0.38;;;0.20;;
68315;SDS011;55508;54.368;18.406;2023-07-20T13:39:48;0.55;;;0.20;;
68315;SDS011;55508;54.368;18.406;2023-07-20T13:42:15;1.05;;;0.50;;
68315;SDS011;55508;54.368;18.406;2023-07-20T13:44:45;0.50;;;0.50;;
68315;SDS011;55508;54.368;18.406;2023-07-20T13:47:13;1.40;;;0.50;;
68315;SDS011;55508;54.368;18.406;2023-07-20T13:49:43;1.00;;;0.30;;
68315;SDS011;55508;54.368;18.406;2023-07-20T13:52:14;0.95;;;0.50;;
68315;SDS011;55508;54.368;18.406;2023-07-20T13:54:44;0.40;;;0.40;;
68315;SDS011;55508;54.368;18.406;2023-07-20T13:57:14;1.05;;;0.50;;
68315;SDS011;55508;54.368;18.406;2023-07-20T13:59:42;1.58;;;0.47;;
68315;SDS011;55508;54.368;18.406;2023-07-20T14:02:10;1.75;;;0.50;;
68315;SDS011;55508;54.368;18.406;2023-07-20T14:04:40;1.10;;;0.57;;
68315;SDS011;55508;54.368;18.406;2023-07-20T14:07:08;0.98;;;0.30;;
68315;SDS011;55508;54.368;18.406;2023-07-20T14:09:36;1.00;;;0.25;;
68315;SDS011;55508;54.368;18.406;2023-07-20T14:12:03;1.63;;;0.40;;
68315;SDS011;55508;54.368;18.406;2023-07-20T14:14:33;1.30;;;0.40;;
68315;SDS011;55508;54.368;18.406;2023-07-20T14:17:00;0.80;;;0.40;;
68315;SDS011;55508;54.368;18.406;2023-07-20T14:19:27;0.47;;;0.20;;
68315;SDS011;55508;54.368;18.406;2023-07-20T14:21:54;0.65;;;0.50;;
68315;SDS011;55508;54.368;18.406;2023-07-20T14:24:21;3.97;;;0.57;;
68315;SDS011;55508;54.368;18.406;2023-07-20T14:26:48;1.13;;;0.40;;
68315;SDS011;55508;54.368;18.406;2023-07-20T14:29:17;1.75;;;0.50;;
68315;SDS011;55508;54.368;18.406;2023-07-20T14:31:45;2.15;;;0.43;;
68315;SDS011;55508;54.368;18.406;2023-07-20T14:34:19;1.63;;;0.50;;
68315;SDS011;55508;54.368;18.406;2023-07-20T14:36:46;0.55;;;0.30;;
68315;SDS011;55508;54.368;18.406;2023-07-20T14:39:13;0.50;;;0.30;;
68315;SDS011;55508;54.368;18.406;2023-07-20T14:41:40;0.85;;;0.40;;
68315;SDS011;55508;54.368;18.406;2023-07-20T14:44:07;2.08;;;0.50;;
68315;SDS011;55508;54.368;18.406;2023-07-20T14:46:37;0.70;;;0.40;;
68315;SDS011;55508;54.368;18.406;2023-07-20T14:49:05;1.98;;;0.43;;
68315;SDS011;55508;54.368;18.406;2023-07-20T14:51:32;0.90;;;0.40;;
68315;SDS011;55508;54.368;18.406;2023-07-20T14:54:02;1.75;;;0.52;;
68315;SDS011;55508;54.368;18.406;2023-07-20T14:56:30;3.85;;;0.40;;
68315;SDS011;55508;54.368;18.406;2023-07-20T14:58:58;0.73;;;0.30;;
68315;SDS011;55508;54.368;18.406;2023-07-20T15:01:27;0.65;;;0.30;;